TimeMST,TemperatureF,Dew PointF,Humidity,Sea Level PressureIn,VisibilityMPH,Wind Direction,Wind SpeedMPH,Gust SpeedMPH,PrecipitationIn,Events,Conditions,WindDirDegrees,DateUTC
12:53 AM,28.0,21.0,75,30.36,10.0,WSW,9.2,-,N/A,,Overcast,240,2013-12-25 07:53:00
1:53 AM,26.1,19.0,75,30.38,10.0,SW,15.0,-,N/A,,Overcast,230,2013-12-25 08:53:00
2:53 AM,23.0,16.0,74,30.39,10.0,SSW,16.1,-,N/A,,Mostly Cloudy,210,2013-12-25 09:53:00
3:53 AM,18.0,12.9,81,30.39,10.0,SW,11.5,-,N/A,,Clear,230,2013-12-25 10:53:00
4:53 AM,14.0,9.0,80,30.40,10.0,WSW,9.2,-,N/A,,Clear,240,2013-12-25 11:53:00
5:53 AM,14.0,9.0,80,30.38,10.0,SW,12.7,-,N/A,,Clear,230,2013-12-25 12:53:00
6:53 AM,12.9,8.1,81,30.36,10.0,WSW,10.4,-,N/A,,Clear,250,2013-12-25 13:53:00
7:53 AM,14.0,8.1,77,30.34,10.0,WSW,13.8,-,N/A,,Clear,250,2013-12-25 14:53:00
8:53 AM,17.1,10.9,77,30.32,10.0,SW,15.0,-,N/A,,Clear,230,2013-12-25 15:53:00
9:53 AM,19.9,12.9,74,30.30,10.0,SW,19.6,-,N/A,,Clear,230,2013-12-25 16:53:00
10:53 AM,21.9,15.1,75,30.28,10.0,SW,16.1,-,N/A,,Clear,230,2013-12-25 17:53:00
11:53 AM,30.9,19.9,64,30.21,10.0,SW,19.6,-,N/A,,Clear,220,2013-12-25 18:53:00
12:53 PM,34.0,23.0,64,30.15,10.0,SW,21.9,-,N/A,,Clear,220,2013-12-25 19:53:00
1:53 PM,35.1,24.1,64,30.11,10.0,SW,21.9,-,N/A,,Clear,220,2013-12-25 20:53:00
2:53 PM,36.0,24.1,62,30.09,10.0,SW,21.9,-,N/A,,Clear,220,2013-12-25 21:53:00
3:53 PM,34.0,24.1,67,30.07,10.0,SW,18.4,-,N/A,,Clear,220,2013-12-25 22:53:00
4:53 PM,36.0,23.0,59,30.06,10.0,SSW,16.1,-,N/A,,Clear,210,2013-12-25 23:53:00
5:53 PM,36.0,25.0,64,30.08,10.0,West,11.5,-,N/A,,Overcast,260,2013-12-26 00:53:00
6:53 PM,35.1,24.1,64,30.08,10.0,SW,13.8,-,N/A,,Clear,220,2013-12-26 01:53:00
7:53 PM,36.0,23.0,59,30.09,10.0,SW,19.6,-,N/A,,Clear,230,2013-12-26 02:53:00
8:53 PM,37.0,24.1,59,30.10,10.0,SW,18.4,-,N/A,,Mostly Cloudy,230,2013-12-26 03:53:00
9:53 PM,36.0,25.0,64,30.10,10.0,SW,19.6,-,N/A,,Clear,220,2013-12-26 04:53:00
10:53 PM,36.0,25.0,64,30.10,10.0,SW,21.9,-,N/A,,Clear,220,2013-12-26 05:53:00
11:53 PM,34.0,25.0,70,30.12,10.0,SW,17.3,-,N/A,,Clear,220,2013-12-26 06:53:00